Terminal Aerodrome Forecast
Issued by NWS Pocatello, ID

Home | Current Version | Previous Version | Text Only | Print | Product List | Glossary On
Versions: 1 2 3 4 5 6 7 8 9 10 11 12
636
FTUS45 KPIH 271120
TAFBYI
TAF
KBYI 271120Z 2712/2812 21007KT P6SM SKC
     FM271800 27010G18KT P6SM SCT200
     FM280200 19007KT P6SM SKC=

USA.gov is the U.S. government's official web portal to all federal, state and local government web resources and services.